Briefing drone pour Genlis

Rechercher une autre localisation

Conditions de vol :


Nous sommes le : Jeudi 08 décembre 2022
Il est 22:45 UTC (23:45 LT)

Lever de soleil : 06:46 UTC (07:46 LT)
Coucher de soleil : 16:15 UTC (17:15 LT)

Météo

L'essentiel des conditions de vol

VIGILANCE MÉTÉO FRANCE - Côte-dOr (21)
Vigilance Jaune : Neige-verglas
METAR de LFSD
LFSD 082230Z AUTO 01004KT 320V040 6000 OVC002 M02/M03 Q1006

Date d'émission: 08/12/2022
Heure d'émission: 22:30 UTC
Vent: 010° (variable du 320° au 040°) pour 4 KT (7 km/h)
Visibilité horizontale: 6000 m
Plafond :
- Couvert à 200ft (61m)
Température: -2 °C
Point de rosée: -3 °C
Humidité: 93%
Pression (QNH): 1006 hPa
TAF de LFSD
LFSD 010600Z 0100/0124 CNL

Conditions prévues :

Heure d'émission : Bulletin éffectué le 01 à 00:00 UTC
Prévision : Valide du 01 a 00:00 UTC au 01 a 23:59 UTC
Nuages : à 0ft (0 m)
WEBCAM POUR GENLIS

Réglementation

Voler en sécurité

CARTES AERONAUTIQUE 1/500.000
CARTE AZBA (Reseau basse altitude)
CARTES VAC (LFSD)
SUP AIP




Chargement des AIP...
NOTAM (GENLIS + Terrain à proximité / FIR )




Chargement des NOTAMS...
CONTACT PREFECTURE 21
Côte-dOr (21) : pref-drone@cote-dor.gouv.fr


Avertissement : Les données mises à disposition sont indicatives. Oxygène Drone ne pourra être tenu responsable de dégâts causés aux biens et aux personnes.